Millerton, OK (74750)

5:06 PM CDT on July 27, 2016 (GMT -0500)
Wright City - Eastside - Sunshine Farm | | Change Station

Elev 413 ft 34.05 °N, 94.98 °W | Updated 2 minutes ago

Scattered Clouds
Scattered Clouds
79.3 °F
Feels Like 82 °F
N
0.6
Wind Variable Wind from SE

Today
High -- | Low -- °F
--% Chance of Precip.
Yesterday
High -- | Low -- °F
Precip. -- in
Pressure 29.94 in
Visibility 10.0 miles
Clouds Scattered Clouds 800 ft
Heat Index 82 °F
Dew Point 67 °F
Humidity 71%
Rainfall 0.17 in
Snow Depth Not available.
6:28 AM 8:24 PM
Last Quarter, 39% visible
METAR K4O4 272155Z AUTO 17004KT 10SM SCT008 23/21 A2994 RMK AO2 P0001
Pressure 29.94 in
Visibility 10.0 miles
Clouds Scattered Clouds 800 ft
Heat Index 82 °F
Dew Point 67 °F
Humidity 71%
Rainfall 0.17 in
Snow Depth Not available.
6:28 AM 8:24 PM
Last Quarter, 39% visible
METAR K4O4 272155Z AUTO 17004KT 10SM SCT008 23/21 A2994 RMK AO2 P0001

10-Day Weather Forecast

Almanac

Astronomy

Jul. 27, 2016 Rise Set
Actual Time
Civil Twilight
Nautical Twilight
Astronomical Twilight
Moon
Length of Visible Light
Length of Day
Tomorrow will be .
, % of the Moon is Illuminated

Today's Extremes

State Highs State Lows

Community

WunderPhotos

Upload Photos

1,927,944 photos uploaded!

WunderBlog® & News

Nearby

Air Quality

  Air Quality AQ Index Pollutant
Not available.

Snow Depth

Station Depth Elevation

Earthquake Activity

City Distance Mag. Time & Date
Minimum magnitude displayed is 2.5.

Coastal Water Temperatures

Place Temperature

Stations

Nearby Weather Stations

Station Location Temp. Windchill Dew Point Humidity Wind Precip. Elev Updated Type
                   

Watches & Warnings

There are currently no watches in effect.